createdAt,value
2023-05-18T00:00:06.335Z,95393.00
2023-05-18T00:01:06.359Z,95397.00
2023-05-18T00:02:06.441Z,95397.00
2023-05-18T00:03:06.468Z,95395.00
2023-05-18T00:04:06.588Z,95395.00
2023-05-18T00:05:06.498Z,95397.00
2023-05-18T00:06:06.541Z,95399.00
2023-05-18T00:07:06.605Z,95399.00
2023-05-18T00:08:06.695Z,95397.00
2023-05-18T00:09:06.654Z,95395.00
2023-05-18T00:10:06.748Z,95395.00
2023-05-18T00:11:06.773Z,95393.00
2023-05-18T00:12:06.789Z,95395.00
2023-05-18T00:13:06.851Z,95393.00
2023-05-18T00:14:06.866Z,95393.00
2023-05-18T00:15:07.033Z,95393.00
2023-05-18T00:16:07.048Z,95393.00
2023-05-18T00:17:06.991Z,95393.00
2023-05-18T00:18:07.058Z,95393.00
2023-05-18T00:19:07.090Z,95393.00
2023-05-18T00:20:07.108Z,95393.00
2023-05-18T00:21:07.146Z,95389.00
2023-05-18T00:22:07.163Z,95391.00
2023-05-18T00:23:07.240Z,95387.00
2023-05-18T00:24:07.272Z,95393.00
2023-05-18T00:25:07.296Z,95389.00
2023-05-18T00:26:07.343Z,95391.00
2023-05-18T00:27:07.431Z,95391.00
2023-05-18T00:28:07.480Z,95393.00
2023-05-18T00:29:07.516Z,95393.00
2023-05-18T00:30:07.532Z,95393.00
2023-05-18T00:31:07.700Z,95393.00
2023-05-18T00:32:07.710Z,95393.00
2023-05-18T00:33:07.721Z,95391.00
2023-05-18T00:34:07.717Z,95393.00
2023-05-18T00:35:07.794Z,95393.00
2023-05-18T00:36:07.800Z,95389.00
2023-05-18T00:37:07.888Z,95391.00
2023-05-18T00:38:07.967Z,95389.00
2023-05-18T00:39:07.954Z,95387.00
2023-05-18T00:40:08.059Z,95389.00
2023-05-18T00:41:08.079Z,95387.00
2023-05-18T00:42:08.130Z,95379.00
2023-05-18T00:43:08.156Z,95387.00
2023-05-18T00:44:08.206Z,95379.00
2023-05-18T00:45:08.302Z,95377.00
2023-05-18T00:46:08.339Z,95377.00
2023-05-18T00:47:08.347Z,95377.00
2023-05-18T00:48:08.450Z,95377.00
2023-05-18T00:49:08.467Z,95375.00
2023-05-18T00:50:08.499Z,95377.00
2023-05-18T00:51:08.567Z,95375.00
2023-05-18T00:52:08.603Z,95375.00
2023-05-18T00:53:08.655Z,95372.00
2023-05-18T00:54:08.686Z,95370.00
2023-05-18T00:55:08.742Z,95370.00
2023-05-18T00:56:08.838Z,95372.00
2023-05-18T00:57:08.892Z,95370.00
2023-05-18T00:58:08.911Z,95370.00
2023-05-18T00:59:08.981Z,95372.00
2023-05-18T01:00:09.008Z,95372.00
2023-05-18T01:01:09.151Z,95372.00
2023-05-18T01:02:09.148Z,95370.00
2023-05-18T01:03:09.294Z,95368.00
2023-05-18T01:04:09.191Z,95368.00
2023-05-18T01:05:09.564Z,95368.00
2023-05-18T01:06:09.281Z,95366.00
2023-05-18T01:07:09.310Z,95366.00
2023-05-18T01:08:09.381Z,95366.00
2023-05-18T01:09:09.466Z,95366.00
2023-05-18T01:10:09.534Z,95366.00
2023-05-18T01:11:09.559Z,95366.00
2023-05-18T01:12:09.583Z,95366.00
2023-05-18T01:13:09.669Z,95366.00
2023-05-18T01:14:09.667Z,95364.00
2023-05-18T01:15:10.069Z,95362.00
2023-05-18T01:16:09.779Z,95364.00
2023-05-18T01:17:09.853Z,95362.00
2023-05-18T01:18:09.882Z,95364.00
2023-05-18T01:19:09.925Z,95364.00
2023-05-18T01:20:10.056Z,95366.00
2023-05-18T01:21:09.991Z,95364.00
2023-05-18T01:22:10.093Z,95362.00
2023-05-18T01:23:10.221Z,95362.00
2023-05-18T01:24:10.206Z,95364.00
2023-05-18T01:25:10.544Z,95360.00
2023-05-18T01:26:10.259Z,95362.00
2023-05-18T01:27:10.312Z,95362.00
2023-05-18T01:28:10.340Z,95360.00
2023-05-18T01:29:10.360Z,95360.00
2023-05-18T01:30:10.553Z,95360.00
2023-05-18T01:31:10.513Z,95362.00
2023-05-18T01:32:10.536Z,95360.00
2023-05-18T01:33:10.666Z,95358.00
2023-05-18T01:34:10.618Z,95358.00
2023-05-18T01:35:10.691Z,95356.00
2023-05-18T01:36:10.698Z,95356.00
2023-05-18T01:37:10.798Z,95352.00
2023-05-18T01:38:10.817Z,95350.00
2023-05-18T01:39:10.849Z,95348.00
2023-05-18T01:40:11.034Z,95350.00
2023-05-18T01:41:10.939Z,95346.00
2023-05-18T01:42:10.989Z,95348.00
2023-05-18T01:43:11.046Z,95348.00
2023-05-18T01:44:11.063Z,95348.00
2023-05-18T01:45:11.136Z,95346.00
2023-05-18T01:46:11.192Z,95346.00
2023-05-18T01:47:11.251Z,95342.00
2023-05-18T01:48:11.328Z,95346.00
2023-05-18T01:49:11.352Z,95346.00
2023-05-18T01:50:11.414Z,95344.00
2023-05-18T01:51:11.424Z,95342.00
2023-05-18T01:52:11.496Z,95342.00
2023-05-18T01:53:11.521Z,95342.00
2023-05-18T01:54:11.592Z,95344.00
2023-05-18T01:55:11.648Z,95344.00
2023-05-18T01:56:11.704Z,95344.00
2023-05-18T01:57:11.745Z,95344.00
2023-05-18T01:58:11.836Z,95344.00
2023-05-18T01:59:11.823Z,95344.00
2023-05-18T02:00:12.047Z,95344.00
2023-05-18T02:01:11.908Z,95344.00
2023-05-18T02:02:12.073Z,95342.00
2023-05-18T02:03:12.085Z,95340.00
2023-05-18T02:04:12.146Z,95342.00
2023-05-18T02:05:12.120Z,95342.00
2023-05-18T02:06:12.214Z,95342.00
2023-05-18T02:07:12.243Z,95340.00
2023-05-18T02:08:12.290Z,95342.00
2023-05-18T02:09:12.333Z,95340.00
2023-05-18T02:10:12.460Z,95340.00
2023-05-18T02:11:12.470Z,95340.00
2023-05-18T02:12:12.517Z,95340.00
2023-05-18T02:13:12.545Z,95338.00
2023-05-18T02:14:12.593Z,95338.00
2023-05-18T02:15:12.630Z,95340.00
2023-05-18T02:16:12.723Z,95340.00
2023-05-18T02:17:12.725Z,95340.00
2023-05-18T02:18:12.834Z,95340.00
2023-05-18T02:19:12.897Z,95338.00
2023-05-18T02:20:12.924Z,95338.00
2023-05-18T02:21:12.920Z,95338.00
2023-05-18T02:22:12.993Z,95338.00
2023-05-18T02:23:13.077Z,95336.00
2023-05-18T02:24:13.126Z,95340.00
2023-05-18T02:25:13.148Z,95338.00
2023-05-18T02:26:13.212Z,95338.00
2023-05-18T02:27:13.289Z,95336.00
2023-05-18T02:28:13.322Z,95334.00
2023-05-18T02:29:13.392Z,95336.00
2023-05-18T02:30:15.947Z,95334.00
2023-05-18T02:31:13.442Z,95334.00
2023-05-18T02:32:13.566Z,95334.00
2023-05-18T02:33:13.540Z,95334.00
2023-05-18T02:34:13.387Z,95334.00
2023-05-18T02:35:13.550Z,95334.00
2023-05-18T02:36:13.386Z,95334.00
2023-05-18T02:37:13.395Z,95334.00
2023-05-18T02:38:13.412Z,95334.00
2023-05-18T02:39:13.355Z,95334.00
2023-05-18T02:40:13.455Z,95332.00
2023-05-18T02:41:13.361Z,95334.00
2023-05-18T02:42:13.371Z,95334.00
2023-05-18T02:43:13.341Z,95330.00
2023-05-18T02:44:13.356Z,95330.00
2023-05-18T02:45:13.588Z,95330.00
2023-05-18T02:46:13.357Z,95330.00
2023-05-18T02:47:13.296Z,95328.00
2023-05-18T02:48:13.318Z,95326.00
2023-05-18T02:49:13.328Z,95326.00
2023-05-18T02:50:13.322Z,95325.00
2023-05-18T02:51:13.283Z,95326.00
2023-05-18T02:52:13.269Z,95325.00
2023-05-18T02:53:13.272Z,95323.00
2023-05-18T02:54:13.279Z,95325.00
2023-05-18T02:55:13.256Z,95323.00
2023-05-18T02:56:13.245Z,95323.00
2023-05-18T02:57:13.246Z,95323.00
2023-05-18T02:58:13.297Z,95319.00
2023-05-18T02:59:13.240Z,95317.00
2023-05-18T03:00:13.222Z,95317.00
2023-05-18T03:01:13.323Z,95317.00
2023-05-18T03:02:13.317Z,95319.00
2023-05-18T03:03:13.298Z,95317.00
2023-05-18T03:04:13.158Z,95321.00
2023-05-18T03:05:13.622Z,95321.00
2023-05-18T03:06:13.176Z,95319.00
2023-05-18T03:07:13.146Z,95319.00
2023-05-18T03:08:13.208Z,95321.00
2023-05-18T03:09:13.293Z,95317.00
2023-05-18T03:10:13.584Z,95321.00
2023-05-18T03:11:13.357Z,95319.00
2023-05-18T03:12:13.475Z,95317.00
2023-05-18T03:13:13.504Z,95317.00
2023-05-18T03:14:13.588Z,95317.00
2023-05-18T03:15:13.619Z,95319.00
2023-05-18T03:16:13.727Z,95319.00
2023-05-18T03:17:13.765Z,95317.00
2023-05-18T03:18:13.832Z,95317.00
2023-05-18T03:19:13.901Z,95319.00
2023-05-18T03:20:13.938Z,95319.00
2023-05-18T03:21:14.020Z,95319.00
2023-05-18T03:22:14.048Z,95317.00
2023-05-18T03:23:14.128Z,95315.00
2023-05-18T03:24:14.162Z,95315.00
2023-05-18T03:25:14.228Z,95317.00
2023-05-18T03:26:14.322Z,95319.00
2023-05-18T03:27:14.394Z,95317.00
2023-05-18T03:28:14.419Z,95319.00
2023-05-18T03:29:14.482Z,95319.00
2023-05-18T03:30:14.525Z,95319.00
2023-05-18T03:31:14.682Z,95319.00
2023-05-18T03:32:14.656Z,95321.00
2023-05-18T03:33:14.764Z,95321.00
2023-05-18T03:34:14.735Z,95321.00
2023-05-18T03:35:14.794Z,95321.00
2023-05-18T03:36:14.870Z,95321.00
2023-05-18T03:37:14.937Z,95323.00
2023-05-18T03:38:14.977Z,95325.00
2023-05-18T03:39:14.992Z,95325.00
2023-05-18T03:40:15.049Z,95325.00
2023-05-18T03:41:15.108Z,95325.00
2023-05-18T03:42:15.163Z,95325.00
2023-05-18T03:43:15.204Z,95325.00
2023-05-18T03:44:15.286Z,95326.00
2023-05-18T03:45:15.288Z,95326.00
2023-05-18T03:46:15.385Z,95325.00
2023-05-18T03:47:15.359Z,95326.00
2023-05-18T03:48:15.411Z,95326.00
2023-05-18T03:49:15.431Z,95325.00
2023-05-18T03:50:15.465Z,95323.00
2023-05-18T03:51:15.484Z,95325.00
2023-05-18T03:52:15.545Z,95325.00
2023-05-18T03:53:15.613Z,95326.00
2023-05-18T03:54:15.671Z,95325.00
2023-05-18T03:55:15.699Z,95323.00
2023-05-18T03:56:15.739Z,95325.00
2023-05-18T03:57:15.742Z,95325.00
2023-05-18T03:58:15.779Z,95325.00
2023-05-18T03:59:15.837Z,95325.00
2023-05-18T04:00:16.114Z,95321.00
2023-05-18T04:01:15.956Z,95323.00
2023-05-18T04:02:16.069Z,95323.00
2023-05-18T04:03:16.033Z,95325.00
2023-05-18T04:04:16.128Z,95325.00
2023-05-18T04:05:16.089Z,95326.00
2023-05-18T04:06:16.115Z,95325.00
2023-05-18T04:07:16.125Z,95326.00
2023-05-18T04:08:16.172Z,95325.00
2023-05-18T04:09:16.198Z,95326.00
2023-05-18T04:10:16.581Z,95328.00
2023-05-18T04:11:16.273Z,95330.00
2023-05-18T04:12:16.323Z,95325.00
2023-05-18T04:13:16.378Z,95326.00
2023-05-18T04:14:16.400Z,95330.00
2023-05-18T04:15:16.617Z,95328.00
2023-05-18T04:16:16.549Z,95328.00
2023-05-18T04:17:16.527Z,95328.00
2023-05-18T04:18:16.592Z,95328.00
2023-05-18T04:19:17.553Z,95328.00
2023-05-18T04:20:16.694Z,95328.00
2023-05-18T04:21:16.750Z,95325.00
2023-05-18T04:22:16.852Z,95328.00
2023-05-18T04:23:16.932Z,95325.00
2023-05-18T04:24:16.949Z,95330.00
2023-05-18T04:25:17.080Z,95328.00
2023-05-18T04:26:17.038Z,95326.00
2023-05-18T04:27:17.069Z,95326.00
2023-05-18T04:28:17.111Z,95328.00
2023-05-18T04:29:17.158Z,95326.00
2023-05-18T04:30:17.609Z,95328.00
2023-05-18T04:31:17.239Z,95328.00
2023-05-18T04:32:17.262Z,95326.00
2023-05-18T04:33:17.284Z,95325.00
2023-05-18T04:34:17.319Z,95328.00
2023-05-18T04:35:17.640Z,95328.00
2023-05-18T04:36:19.021Z,95330.00
2023-05-18T04:37:17.461Z,95330.00
2023-05-18T04:38:17.480Z,95330.00
2023-05-18T04:39:17.428Z,95332.00
2023-05-18T04:40:17.790Z,95332.00
2023-05-18T04:41:17.420Z,95330.00
2023-05-18T04:42:17.423Z,95332.00
2023-05-18T04:43:17.435Z,95330.00
2023-05-18T04:44:17.437Z,95334.00
2023-05-18T04:45:17.615Z,95332.00
2023-05-18T04:46:17.463Z,95332.00
2023-05-18T04:47:17.410Z,95330.00
2023-05-18T04:48:17.359Z,95332.00
2023-05-18T04:49:17.407Z,95332.00
2023-05-18T04:50:17.620Z,95330.00
2023-05-18T04:51:17.332Z,95330.00
2023-05-18T04:52:17.344Z,95330.00
2023-05-18T04:53:17.309Z,95330.00
2023-05-18T04:54:17.315Z,95332.00
2023-05-18T04:55:17.299Z,95330.00
2023-05-18T04:56:17.359Z,95330.00
2023-05-18T04:57:17.318Z,95325.00
2023-05-18T04:58:17.292Z,95328.00
2023-05-18T04:59:17.267Z,95325.00
2023-05-18T05:00:17.617Z,95323.00
2023-05-18T05:01:17.319Z,95325.00
2023-05-18T05:02:17.291Z,95323.00
2023-05-18T05:03:17.369Z,95323.00
2023-05-18T05:04:17.263Z,95328.00
2023-05-18T05:05:17.606Z,95326.00
2023-05-18T05:06:17.233Z,95325.00
2023-05-18T05:07:17.211Z,95325.00
2023-05-18T05:08:17.228Z,95325.00
2023-05-18T05:09:17.234Z,95325.00
2023-05-18T05:10:17.619Z,95325.00
2023-05-18T05:11:17.155Z,95325.00
2023-05-18T05:12:17.166Z,95325.00
2023-05-18T05:13:17.213Z,95325.00
2023-05-18T05:14:17.147Z,95319.00
2023-05-18T05:15:17.175Z,95325.00
2023-05-18T05:16:17.169Z,95323.00
2023-05-18T05:17:17.135Z,95326.00
2023-05-18T05:18:17.144Z,95325.00
2023-05-18T05:19:17.115Z,95323.00
2023-05-18T05:20:17.628Z,95325.00
2023-05-18T05:21:17.152Z,95325.00
2023-05-18T05:22:17.086Z,95321.00
2023-05-18T05:23:17.127Z,95321.00
2023-05-18T05:24:17.086Z,95321.00
2023-05-18T05:25:17.105Z,95321.00
2023-05-18T05:26:17.075Z,95325.00
2023-05-18T05:27:17.073Z,95323.00
2023-05-18T05:28:17.062Z,95321.00
2023-05-18T05:29:17.030Z,95319.00
2023-05-18T05:30:17.068Z,95319.00
2023-05-18T05:31:17.049Z,95319.00
2023-05-18T05:32:17.031Z,95317.00
2023-05-18T05:33:17.055Z,95317.00
2023-05-18T05:34:17.018Z,95317.00
2023-05-18T05:35:17.001Z,95315.00
2023-05-18T05:36:16.980Z,95315.00
2023-05-18T05:37:16.982Z,95317.00
2023-05-18T05:38:16.953Z,95319.00
2023-05-18T05:39:16.979Z,95315.00
2023-05-18T05:40:16.992Z,95317.00
2023-05-18T05:41:16.942Z,95317.00
2023-05-18T05:42:16.955Z,95315.00
2023-05-18T05:43:16.932Z,95315.00
2023-05-18T05:44:16.933Z,95317.00
2023-05-18T05:45:16.940Z,95317.00
2023-05-18T05:46:16.945Z,95317.00
2023-05-18T05:47:16.934Z,95317.00
2023-05-18T05:48:16.981Z,95317.00
2023-05-18T05:49:16.895Z,95317.00
2023-05-18T05:50:17.141Z,95321.00
2023-05-18T05:51:16.902Z,95315.00
2023-05-18T05:52:16.925Z,95317.00
2023-05-18T05:53:16.856Z,95315.00
2023-05-18T05:54:16.855Z,95317.00
2023-05-18T05:55:16.871Z,95317.00
2023-05-18T05:56:16.849Z,95315.00
2023-05-18T05:57:16.854Z,95317.00
2023-05-18T05:58:16.816Z,95315.00
2023-05-18T05:59:16.823Z,95315.00
2023-05-18T06:00:17.148Z,95313.00
2023-05-18T06:01:16.827Z,95313.00
2023-05-18T06:02:16.800Z,95313.00
2023-05-18T06:03:16.858Z,95313.00
2023-05-18T06:04:16.929Z,95315.00
2023-05-18T06:05:17.194Z,95315.00
2023-05-18T06:06:16.876Z,95313.00
2023-05-18T06:07:16.902Z,95315.00
2023-05-18T06:08:16.926Z,95317.00
2023-05-18T06:09:16.975Z,95317.00
2023-05-18T06:10:17.146Z,95319.00
2023-05-18T06:11:17.068Z,95319.00
2023-05-18T06:12:17.122Z,95321.00
2023-05-18T06:13:17.106Z,95321.00
2023-05-18T06:14:17.138Z,95319.00
2023-05-18T06:15:17.659Z,95323.00
2023-05-18T06:16:17.173Z,95321.00
2023-05-18T06:17:17.220Z,95323.00
2023-05-18T06:18:17.315Z,95323.00
2023-05-18T06:19:17.246Z,95325.00
2023-05-18T06:20:17.684Z,95326.00
2023-05-18T06:21:17.216Z,95326.00
2023-05-18T06:22:17.265Z,95323.00
2023-05-18T06:23:17.264Z,95328.00
2023-05-18T06:24:17.339Z,95328.00
2023-05-18T06:25:17.617Z,95330.00
2023-05-18T06:26:17.279Z,95330.00
2023-05-18T06:27:17.347Z,95328.00
2023-05-18T06:28:17.303Z,95330.00
2023-05-18T06:29:17.321Z,95326.00
2023-05-18T06:30:17.657Z,95326.00
2023-05-18T06:31:17.362Z,95325.00
2023-05-18T06:32:17.607Z,95323.00
2023-05-18T06:33:17.440Z,95323.00
2023-05-18T06:34:17.390Z,95325.00
2023-05-18T06:35:17.694Z,95325.00
2023-05-18T06:36:17.495Z,95323.00
2023-05-18T06:37:17.504Z,95321.00
2023-05-18T06:38:17.574Z,95323.00
2023-05-18T06:39:17.572Z,95321.00
2023-05-18T06:40:17.669Z,95321.00
2023-05-18T06:41:17.633Z,95323.00
2023-05-18T06:42:17.642Z,95321.00
2023-05-18T06:43:17.647Z,95321.00
2023-05-18T06:44:17.691Z,95321.00
2023-05-18T06:45:18.129Z,95317.00
2023-05-18T06:46:17.837Z,95319.00
2023-05-18T06:47:17.766Z,95323.00
2023-05-18T06:48:17.784Z,95319.00
2023-05-18T06:49:17.829Z,95323.00
2023-05-18T06:50:18.122Z,95323.00
2023-05-18T06:51:17.868Z,95323.00
2023-05-18T06:52:17.905Z,95323.00
2023-05-18T06:53:17.974Z,95325.00
2023-05-18T06:54:18.027Z,95326.00
2023-05-18T06:55:18.069Z,95325.00
2023-05-18T06:56:18.107Z,95326.00
2023-05-18T06:57:18.138Z,95326.00
2023-05-18T06:58:18.190Z,95325.00
2023-05-18T06:59:18.229Z,95325.00
2023-05-18T07:00:18.683Z,95325.00
2023-05-18T07:01:18.353Z,95323.00
2023-05-18T07:02:18.402Z,95326.00
2023-05-18T07:03:18.587Z,95325.00
2023-05-18T07:04:18.493Z,95326.00
2023-05-18T07:05:18.679Z,95328.00
2023-05-18T07:06:18.573Z,95326.00
2023-05-18T07:07:18.628Z,95325.00
2023-05-18T07:08:18.689Z,95326.00
2023-05-18T07:09:18.784Z,95328.00
2023-05-18T07:10:19.152Z,95326.00
2023-05-18T07:11:18.785Z,95328.00
2023-05-18T07:12:18.835Z,95330.00
2023-05-18T07:13:18.880Z,95325.00
2023-05-18T07:14:18.964Z,95326.00
2023-05-18T07:15:19.148Z,95325.00
2023-05-18T07:16:19.064Z,95325.00
2023-05-18T07:17:19.107Z,95323.00
2023-05-18T07:18:19.143Z,95325.00
2023-05-18T07:19:19.233Z,95323.00
2023-05-18T07:20:19.663Z,95321.00
2023-05-18T07:21:19.371Z,95319.00
2023-05-18T07:22:19.279Z,95319.00
2023-05-18T07:23:19.337Z,95317.00
2023-05-18T07:24:19.389Z,95317.00
2023-05-18T07:25:19.677Z,95315.00
2023-05-18T07:26:19.525Z,95315.00
2023-05-18T07:27:19.559Z,95315.00
2023-05-18T07:28:19.633Z,95315.00
2023-05-18T07:29:19.689Z,95315.00
2023-05-18T07:30:20.141Z,95315.00
2023-05-18T07:31:19.818Z,95313.00
2023-05-18T07:32:19.813Z,95313.00
2023-05-18T07:33:19.963Z,95311.00
2023-05-18T07:34:19.934Z,95313.00
2023-05-18T07:35:20.147Z,95313.00
2023-05-18T07:36:19.989Z,95313.00
2023-05-18T07:37:20.614Z,95311.00
2023-05-18T07:38:20.108Z,95313.00
2023-05-18T07:39:20.167Z,95313.00
2023-05-18T07:40:20.678Z,95317.00
2023-05-18T07:41:20.249Z,95315.00
2023-05-18T07:42:20.313Z,95317.00
2023-05-18T07:43:20.354Z,95309.00
2023-05-18T07:44:20.357Z,95315.00
2023-05-18T07:45:20.457Z,95315.00
2023-05-18T07:46:20.525Z,95313.00
2023-05-18T07:47:20.552Z,95311.00
2023-05-18T07:48:20.584Z,95311.00
2023-05-18T07:49:20.640Z,95311.00
2023-05-18T07:50:20.685Z,95311.00
2023-05-18T07:51:20.766Z,95311.00
2023-05-18T07:52:20.828Z,95315.00
2023-05-18T07:53:20.878Z,95313.00
2023-05-18T07:54:20.996Z,95313.00
2023-05-18T07:55:21.213Z,95311.00
2023-05-18T07:56:21.055Z,95313.00
2023-05-18T07:57:21.103Z,95313.00
2023-05-18T07:58:21.159Z,95313.00
2023-05-18T07:59:21.223Z,95311.00
2023-05-18T08:00:21.300Z,95311.00
2023-05-18T08:01:21.329Z,95309.00
2023-05-18T08:02:21.435Z,95309.00
2023-05-18T08:03:21.494Z,95307.00
2023-05-18T08:04:21.582Z,95305.00
2023-05-18T08:05:21.587Z,95307.00
2023-05-18T08:06:21.733Z,95305.00
2023-05-18T08:07:21.729Z,95305.00
2023-05-18T08:08:21.761Z,95307.00
2023-05-18T08:09:21.851Z,95311.00
2023-05-18T08:10:21.900Z,95307.00
2023-05-18T08:11:21.952Z,95309.00
2023-05-18T08:12:22.679Z,95311.00
2023-05-18T08:13:22.022Z,95309.00
2023-05-18T08:14:22.059Z,95307.00
2023-05-18T08:15:22.128Z,95307.00
2023-05-18T08:16:22.247Z,95305.00
2023-05-18T08:17:22.282Z,95309.00
2023-05-18T08:18:22.326Z,95311.00
2023-05-18T08:19:22.518Z,95309.00
2023-05-18T08:20:22.449Z,95309.00
2023-05-18T08:21:22.542Z,95307.00
2023-05-18T08:22:22.554Z,95307.00
2023-05-18T08:23:22.621Z,95305.00
2023-05-18T08:24:22.673Z,95303.00
2023-05-18T08:25:23.167Z,95305.00
2023-05-18T08:26:22.786Z,95307.00
2023-05-18T08:27:22.855Z,95307.00
2023-05-18T08:28:22.891Z,95311.00
2023-05-18T08:29:22.953Z,95309.00
2023-05-18T08:30:23.184Z,95315.00
2023-05-18T08:31:23.092Z,95313.00
2023-05-18T08:32:23.152Z,95315.00
2023-05-18T08:33:23.176Z,95313.00
2023-05-18T08:34:23.239Z,95313.00
2023-05-18T08:35:23.708Z,95313.00
2023-05-18T08:36:23.327Z,95317.00
2023-05-18T08:37:23.409Z,95315.00
2023-05-18T08:38:23.488Z,95315.00
2023-05-18T08:39:23.524Z,95313.00
2023-05-18T08:40:23.663Z,95315.00
2023-05-18T08:41:23.619Z,95313.00
2023-05-18T08:42:29.498Z,95311.00
2023-05-18T08:43:24.679Z,95309.00
2023-05-18T08:44:23.711Z,95307.00
2023-05-18T08:45:23.711Z,95313.00
2023-05-18T08:46:23.645Z,95309.00
2023-05-18T08:47:23.707Z,95309.00
2023-05-18T08:48:26.343Z,95309.00
2023-05-18T08:49:23.706Z,95313.00
2023-05-18T08:50:24.622Z,95309.00
2023-05-18T08:51:23.663Z,95311.00
2023-05-18T08:52:23.601Z,95309.00
2023-05-18T08:53:23.618Z,95309.00
2023-05-18T08:54:23.629Z,95307.00
2023-05-18T08:55:23.681Z,95307.00
2023-05-18T08:56:23.617Z,95307.00
2023-05-18T08:57:23.615Z,95305.00
2023-05-18T08:58:23.560Z,95301.00
2023-05-18T08:59:23.566Z,95303.00
2023-05-18T09:00:24.362Z,95299.00
2023-05-18T09:01:23.616Z,95299.00
2023-05-18T09:02:23.589Z,95299.00
2023-05-18T09:03:23.592Z,95299.00
2023-05-18T09:04:23.647Z,95299.00
2023-05-18T09:05:23.548Z,95299.00
2023-05-18T09:06:24.183Z,95295.00
2023-05-18T09:07:23.504Z,95297.00
2023-05-18T09:08:23.507Z,95293.00
2023-05-18T09:09:23.533Z,95295.00
2023-05-18T09:10:23.593Z,95297.00
2023-05-18T09:11:23.638Z,95297.00
2023-05-18T09:12:24.727Z,95295.00
2023-05-18T09:13:23.750Z,95293.00
2023-05-18T09:14:23.766Z,95299.00
2023-05-18T09:15:23.804Z,95297.00
2023-05-18T09:16:24.008Z,95299.00
2023-05-18T09:17:23.981Z,95299.00
2023-05-18T09:18:26.142Z,95299.00
2023-05-18T09:19:23.989Z,95299.00
2023-05-18T09:20:24.216Z,95297.00
2023-05-18T09:21:23.915Z,95303.00
2023-05-18T09:22:23.921Z,95303.00
2023-05-18T09:23:23.916Z,95303.00
2023-05-18T09:24:24.714Z,95305.00
2023-05-18T09:25:23.898Z,95303.00
2023-05-18T09:26:23.872Z,95303.00
2023-05-18T09:27:23.908Z,95301.00
2023-05-18T09:28:23.966Z,95303.00
2023-05-18T09:29:23.872Z,95301.00
2023-05-18T09:30:23.871Z,95299.00
2023-05-18T09:31:23.923Z,95297.00
2023-05-18T09:32:23.850Z,95295.00
2023-05-18T09:33:23.963Z,95295.00
2023-05-18T09:34:23.807Z,95295.00
2023-05-18T09:35:24.203Z,95295.00
2023-05-18T09:36:23.816Z,95295.00
2023-05-18T09:37:23.846Z,95295.00
2023-05-18T09:38:23.823Z,95293.00
2023-05-18T09:39:23.822Z,95291.00
2023-05-18T09:40:24.205Z,95295.00
2023-05-18T09:41:23.789Z,95295.00
2023-05-18T09:42:24.291Z,95293.00
2023-05-18T09:43:23.790Z,95291.00
2023-05-18T09:44:23.752Z,95289.00
2023-05-18T09:45:23.794Z,95291.00
2023-05-18T09:46:23.811Z,95287.00
2023-05-18T09:47:23.798Z,95285.00
2023-05-18T09:48:25.451Z,95287.00
2023-05-18T09:49:23.743Z,95287.00
2023-05-18T09:50:24.225Z,95285.00
2023-05-18T09:51:23.793Z,95285.00
2023-05-18T09:52:23.830Z,95285.00
2023-05-18T09:53:23.887Z,95285.00
2023-05-18T09:54:24.531Z,95283.00
2023-05-18T09:55:23.973Z,95283.00
2023-05-18T09:56:24.006Z,95283.00
2023-05-18T09:57:24.028Z,95283.00
2023-05-18T09:58:24.056Z,95283.00
2023-05-18T09:59:24.118Z,95281.00
2023-05-18T10:00:25.537Z,95279.00
2023-05-18T10:01:24.274Z,95279.00
2023-05-18T10:02:24.224Z,95283.00
2023-05-18T10:03:24.251Z,95283.00
2023-05-18T10:04:24.332Z,95283.00
2023-05-18T10:05:24.307Z,95281.00
2023-05-18T10:06:24.378Z,95281.00
2023-05-18T10:07:24.339Z,95279.00
2023-05-18T10:08:24.388Z,95277.00
2023-05-18T10:09:24.429Z,95279.00
2023-05-18T10:10:24.470Z,95283.00
2023-05-18T10:11:24.504Z,95281.00
2023-05-18T10:12:24.561Z,95279.00
2023-05-18T10:13:24.625Z,95279.00
2023-05-18T10:14:24.638Z,95277.00
2023-05-18T10:15:24.690Z,95281.00
2023-05-18T10:16:24.749Z,95279.00
2023-05-18T10:17:24.795Z,95279.00
2023-05-18T10:18:24.880Z,95277.00
2023-05-18T10:19:24.893Z,95277.00
2023-05-18T10:20:25.225Z,95281.00
2023-05-18T10:21:24.907Z,95273.00
2023-05-18T10:22:24.928Z,95279.00
2023-05-18T10:23:24.975Z,95277.00
2023-05-18T10:24:25.050Z,95277.00
2023-05-18T10:25:25.054Z,95273.00
2023-05-18T10:26:25.089Z,95273.00
2023-05-18T10:27:25.154Z,95275.00
2023-05-18T10:28:25.170Z,95273.00
2023-05-18T10:29:25.237Z,95271.00
2023-05-18T10:30:25.259Z,95271.00
2023-05-18T10:31:25.336Z,95268.00
2023-05-18T10:32:25.381Z,95268.00
2023-05-18T10:33:29.539Z,95268.00
2023-05-18T10:34:25.337Z,95273.00
2023-05-18T10:35:25.324Z,95270.00
2023-05-18T10:36:25.334Z,95268.00
2023-05-18T10:37:25.292Z,95268.00
2023-05-18T10:38:25.320Z,95266.00
2023-05-18T10:39:25.316Z,95260.00
2023-05-18T10:40:25.772Z,95264.00
2023-05-18T10:41:25.302Z,95270.00
2023-05-18T10:42:25.266Z,95270.00
2023-05-18T10:43:25.279Z,95268.00
2023-05-18T10:44:25.283Z,95270.00
2023-05-18T10:45:25.728Z,95268.00
2023-05-18T10:46:25.280Z,95266.00
2023-05-18T10:47:25.442Z,95268.00
2023-05-18T10:48:25.308Z,95266.00
2023-05-18T10:49:25.290Z,95270.00
2023-05-18T10:50:25.705Z,95270.00
2023-05-18T10:51:25.404Z,95266.00
2023-05-18T10:52:25.373Z,95266.00
2023-05-18T10:53:25.416Z,95268.00
2023-05-18T10:54:25.444Z,95264.00
2023-05-18T10:55:25.461Z,95264.00
2023-05-18T10:56:25.491Z,95268.00
2023-05-18T10:57:25.522Z,95266.00
2023-05-18T10:58:25.551Z,95270.00
2023-05-18T10:59:25.529Z,95270.00
2023-05-18T11:00:25.746Z,95268.00
2023-05-18T11:01:25.612Z,95270.00
2023-05-18T11:02:25.663Z,95271.00
2023-05-18T11:03:25.679Z,95271.00
2023-05-18T11:04:25.792Z,95271.00
2023-05-18T11:05:25.856Z,95271.00
2023-05-18T11:06:25.776Z,95273.00
2023-05-18T11:07:25.811Z,95268.00
2023-05-18T11:08:25.825Z,95264.00
2023-05-18T11:09:25.856Z,95271.00
2023-05-18T11:10:26.210Z,95266.00
2023-05-18T11:11:25.901Z,95264.00
2023-05-18T11:12:25.947Z,95266.00
2023-05-18T11:13:25.969Z,95262.00
2023-05-18T11:14:25.997Z,95264.00
2023-05-18T11:15:26.241Z,95264.00
2023-05-18T11:16:26.775Z,95264.00
2023-05-18T11:17:26.054Z,95264.00
2023-05-18T11:18:26.089Z,95262.00
2023-05-18T11:19:26.136Z,95266.00
2023-05-18T11:20:26.265Z,95266.00
2023-05-18T11:21:26.155Z,95268.00
2023-05-18T11:22:27.297Z,95264.00
2023-05-18T11:23:26.289Z,95264.00
2023-05-18T11:24:26.360Z,95264.00
2023-05-18T11:25:26.703Z,95264.00
2023-05-18T11:26:26.376Z,95266.00
2023-05-18T11:27:26.399Z,95264.00
2023-05-18T11:28:26.474Z,95266.00
2023-05-18T11:29:26.477Z,95264.00
2023-05-18T11:30:26.474Z,95268.00
2023-05-18T11:31:26.523Z,95266.00
2023-05-18T11:32:30.626Z,95268.00
2023-05-18T11:33:26.551Z,95268.00
2023-05-18T11:34:26.506Z,95271.00
2023-05-18T11:35:26.508Z,95266.00
2023-05-18T11:36:26.472Z,95270.00
2023-05-18T11:37:26.485Z,95270.00
2023-05-18T11:38:26.466Z,95270.00
2023-05-18T11:39:26.482Z,95270.00
2023-05-18T11:40:26.478Z,95268.00
2023-05-18T11:41:26.484Z,95268.00
2023-05-18T11:42:26.441Z,95266.00
2023-05-18T11:43:26.478Z,95266.00
2023-05-18T11:44:26.446Z,95264.00